Time;durP1;ratioP1;P1;durP2;ratioP2;P2;SDS_P1;SDS_P2;PMS_P1;PMS_P2;Temp;Humidity;BMP_temperature;BMP_pressure;BME280_temperature;BME280_humidity;BME280_pressure;Samples;Min_cycle;Max_cycle;Signal;HPM_P1;HPM_P2
2021/08/14 00:02:21;;;;;;;8.10;7.40;;;28.60;51.30;;;;;;4989045;28;20190;-49
2021/08/14 00:04:47;;;;;;;8.47;7.63;;;28.60;51.20;;;;;;4983368;28;20225;-47
2021/08/14 00:07:13;;;;;;;8.87;7.97;;;28.60;51.30;;;;;;4988011;28;20194;-50
2021/08/14 00:09:38;;;;;;;9.00;7.67;;;28.50;51.40;;;;;;4987352;28;20278;-50
2021/08/14 00:12:05;;;;;;;8.87;7.97;;;28.50;51.50;;;;;;4980668;28;20325;-47
2021/08/14 00:14:31;;;;;;;8.70;7.83;;;28.40;51.60;;;;;;4990232;28;20190;-46
2021/08/14 00:16:56;;;;;;;7.93;7.20;;;28.40;51.70;;;;;;4987556;28;20520;-48
2021/08/14 00:19:22;;;;;;;10.27;7.50;;;28.30;51.70;;;;;;4988947;28;20236;-47
2021/08/14 00:21:48;;;;;;;9.83;8.07;;;28.30;51.90;;;;;;4977106;28;20650;-46
2021/08/14 00:24:13;;;;;;;8.67;7.83;;;28.30;52.00;;;;;;4985235;28;20202;-47
2021/08/14 00:26:39;;;;;;;9.37;7.97;;;28.30;52.00;;;;;;4983078;28;20191;-47
2021/08/14 00:29:05;;;;;;;9.40;8.60;;;28.20;52.30;;;;;;4990215;28;20198;-48
2021/08/14 00:31:30;;;;;;;9.30;8.60;;;28.10;52.50;;;;;;4989432;28;20202;-47
2021/08/14 00:33:56;;;;;;;8.83;7.97;;;28.10;52.50;;;;;;4988372;28;20763;-47
2021/08/14 00:36:22;;;;;;;9.07;8.27;;;28.00;52.40;;;;;;4985496;28;20610;-51
2021/08/14 00:38:48;;;;;;;8.23;7.40;;;28.10;52.40;;;;;;4987721;28;20273;-46
2021/08/14 00:41:13;;;;;;;8.20;7.43;;;28.00;52.20;;;;;;4991822;28;20257;-48
2021/08/14 00:43:40;;;;;;;9.27;8.30;;;28.00;52.40;;;;;;4985372;28;20203;-46
2021/08/14 00:46:05;;;;;;;7.70;7.00;;;28.10;52.10;;;;;;4984583;28;20201;-47
2021/08/14 00:48:31;;;;;;;13.33;7.90;;;28.00;52.30;;;;;;4992001;28;20446;-49
2021/08/14 00:50:58;;;;;;;7.60;6.97;;;28.10;52.00;;;;;;4989437;28;20677;-49
2021/08/14 00:53:24;;;;;;;8.30;7.40;;;28.00;52.60;;;;;;4991325;28;20269;-47
2021/08/14 00:55:49;;;;;;;10.17;7.30;;;28.00;52.20;;;;;;4986500;28;20476;-51
2021/08/14 00:58:15;;;;;;;8.27;7.20;;;28.00;52.30;;;;;;4988011;28;20474;-46
2021/08/14 01:00:42;;;;;;;7.13;6.53;;;28.00;52.20;;;;;;4989889;28;20274;-47
2021/08/14 01:03:08;;;;;;;7.93;7.17;;;28.00;52.10;;;;;;4988854;28;20233;-48
2021/08/14 01:05:36;;;;;;;7.63;6.93;;;28.00;52.00;;;;;;4994143;28;20433;-47
2021/08/14 01:08:04;;;;;;;8.03;7.13;;;28.00;52.30;;;;;;4990483;28;20452;-49
2021/08/14 01:10:31;;;;;;;8.43;7.20;;;28.10;52.10;;;;;;4989821;28;20988;-46
2021/08/14 01:12:56;;;;;;;7.40;6.70;;;28.10;52.00;;;;;;4990385;28;20530;-51
2021/08/14 01:15:22;;;;;;;7.50;6.90;;;28.10;51.90;;;;;;4994663;28;20952;-51
2021/08/14 01:17:48;;;;;;;9.00;8.10;;;28.10;51.90;;;;;;4984310;28;20253;-46
2021/08/14 01:20:14;;;;;;;8.80;8.00;;;28.10;51.70;;;;;;4992018;28;20199;-47
2021/08/14 01:22:40;;;;;;;8.40;7.60;;;28.00;51.70;;;;;;4983274;28;20834;-50
2021/08/14 01:25:08;;;;;;;7.87;7.20;;;28.00;51.80;;;;;;4989322;28;20210;-48
2021/08/14 01:27:35;;;;;;;10.23;7.73;;;27.90;51.90;;;;;;4987124;28;20217;-49
2021/08/14 01:30:02;;;;;;;11.20;7.80;;;27.80;52.10;;;;;;4985175;28;20901;-48
2021/08/14 01:32:28;;;;;;;9.57;8.60;;;27.80;52.10;;;;;;4989026;28;20524;-50
2021/08/14 01:34:54;;;;;;;11.80;8.10;;;27.80;52.10;;;;;;4991628;28;20637;-46
2021/08/14 01:37:20;;;;;;;9.20;8.00;;;27.70;52.30;;;;;;4985522;28;20902;-46
2021/08/14 01:39:45;;;;;;;8.77;8.07;;;27.70;52.60;;;;;;4992022;28;20269;-47
2021/08/14 01:42:11;;;;;;;9.07;7.17;;;27.70;52.50;;;;;;4984967;28;20708;-51
2021/08/14 01:44:37;;;;;;;8.53;7.53;;;27.60;52.70;;;;;;4982539;28;20646;-49
2021/08/14 01:47:04;;;;;;;8.40;7.70;;;27.60;52.70;;;;;;4987880;28;20656;-46
2021/08/14 01:49:30;;;;;;;7.67;7.03;;;27.60;52.80;;;;;;4986358;28;20508;-48
2021/08/14 01:51:56;;;;;;;8.50;7.60;;;27.60;52.90;;;;;;4981923;28;20477;-46
2021/08/14 01:54:22;;;;;;;9.77;7.77;;;27.60;52.90;;;;;;4983535;28;20646;-47
2021/08/14 01:56:50;;;;;;;11.30;8.00;;;27.60;52.90;;;;;;4985097;28;20202;-49
2021/08/14 01:59:15;;;;;;;11.37;7.70;;;27.60;52.80;;;;;;4984992;28;20904;-49
2021/08/14 02:01:41;;;;;;;9.83;8.17;;;27.60;52.90;;;;;;4984013;28;20541;-48
2021/08/14 02:04:07;;;;;;;8.93;7.77;;;27.60;52.90;;;;;;4987187;28;20186;-51
2021/08/14 02:06:33;;;;;;;8.93;7.90;;;27.60;52.90;;;;;;4991460;28;20282;-47
2021/08/14 02:08:58;;;;;;;10.53;8.23;;;27.60;52.80;;;;;;4988153;28;20195;-46
2021/08/14 02:11:27;;;;;;;7.90;7.23;;;27.60;52.80;;;;;;4980093;28;20479;-48
2021/08/14 02:13:54;;;;;;;10.00;8.10;;;27.60;52.80;;;;;;4985222;28;20578;-46
2021/08/14 02:16:20;;;;;;;8.00;7.30;;;27.60;52.90;;;;;;4982107;28;20596;-50
2021/08/14 02:18:46;;;;;;;8.90;8.00;;;27.50;52.80;;;;;;4977211;28;20977;-50
2021/08/14 02:21:12;;;;;;;9.03;8.33;;;27.50;52.90;;;;;;4985555;28;20442;-49
2021/08/14 02:23:38;;;;;;;9.90;8.13;;;27.50;52.80;;;;;;4976346;28;20219;-47
2021/08/14 02:26:05;;;;;;;8.13;7.40;;;27.50;52.90;;;;;;4986013;28;20547;-50
2021/08/14 02:28:31;;;;;;;8.67;7.87;;;27.40;52.90;;;;;;4990340;28;20442;-48
2021/08/14 02:30:58;;;;;;;8.73;7.87;;;27.30;53.10;;;;;;4985885;28;20460;-51
2021/08/14 02:33:23;;;;;;;9.87;8.80;;;27.20;53.30;;;;;;4989920;28;20597;-46
2021/08/14 02:35:51;;;;;;;8.37;7.67;;;27.20;53.40;;;;;;4985292;28;20434;-50
2021/08/14 02:38:17;;;;;;;11.33;8.13;;;27.10;53.60;;;;;;4984622;28;20286;-50
2021/08/14 02:40:46;;;;;;;9.30;8.20;;;27.00;54.20;;;;;;4984170;28;20561;-47
2021/08/14 02:43:12;;;;;;;7.60;7.00;;;27.00;54.10;;;;;;4980115;28;20202;-51
2021/08/14 02:45:37;;;;;;;8.83;7.53;;;27.10;53.80;;;;;;4988681;28;20449;-48
2021/08/14 02:48:03;;;;;;;8.50;7.73;;;27.10;53.80;;;;;;4987601;28;20226;-51
2021/08/14 02:50:29;;;;;;;8.17;7.37;;;27.10;53.60;;;;;;4989657;28;20202;-49
2021/08/14 02:52:54;;;;;;;8.13;7.33;;;27.10;53.70;;;;;;4985895;28;20596;-49
2021/08/14 02:55:20;;;;;;;8.50;7.80;;;27.10;53.90;;;;;;4985724;28;20629;-50
2021/08/14 02:57:46;;;;;;;7.90;7.20;;;27.10;53.70;;;;;;4991016;28;20529;-51
2021/08/14 03:00:12;;;;;;;8.87;8.07;;;27.10;53.80;;;;;;4985991;28;20238;-49
2021/08/14 03:02:38;;;;;;;8.03;7.33;;;27.00;54.00;;;;;;4981761;28;20206;-47
2021/08/14 03:05:04;;;;;;;8.90;8.10;;;27.00;54.20;;;;;;4982557;28;20453;-51
2021/08/14 03:07:31;;;;;;;8.03;7.23;;;26.90;54.30;;;;;;4983773;28;20191;-51
2021/08/14 03:09:57;;;;;;;7.80;7.00;;;26.80;54.40;;;;;;4986729;28;20876;-47
2021/08/14 03:12:22;;;;;;;10.07;7.63;;;26.80;54.50;;;;;;4984813;28;20597;-50
2021/08/14 03:14:48;;;;;;;9.47;8.53;;;26.80;54.40;;;;;;4985637;28;20210;-52
2021/08/14 03:17:14;;;;;;;8.00;7.40;;;26.80;54.50;;;;;;4988579;28;20225;-47
2021/08/14 03:19:40;;;;;;;9.80;7.93;;;26.80;54.50;;;;;;4982649;28;20198;-48
2021/08/14 03:22:05;;;;;;;9.37;8.43;;;26.70;54.50;;;;;;4987211;28;20450;-51
2021/08/14 03:24:31;;;;;;;9.23;7.43;;;26.80;54.70;;;;;;4989250;28;20194;-49
2021/08/14 03:26:57;;;;;;;9.23;8.43;;;26.70;54.70;;;;;;4984481;28;20226;-51
2021/08/14 03:29:22;;;;;;;9.43;8.23;;;26.70;54.70;;;;;;4990199;28;20201;-51
2021/08/14 03:31:48;;;;;;;8.50;7.70;;;26.40;55.60;;;;;;4987407;28;20823;-51
2021/08/14 03:34:14;;;;;;;8.10;7.30;;;26.40;55.60;;;;;;4989875;28;20282;-49
2021/08/14 03:36:39;;;;;;;7.83;7.13;;;26.40;55.40;;;;;;4983032;28;20190;-50
2021/08/14 03:39:05;;;;;;;8.40;7.70;;;26.40;55.30;;;;;;4988775;28;20195;-51
2021/08/14 03:41:30;;;;;;;8.67;7.87;;;26.40;55.40;;;;;;4989213;28;20714;-51
2021/08/14 03:43:56;;;;;;;8.93;8.13;;;26.40;55.20;;;;;;4984993;28;21809;-49
2021/08/14 03:46:21;;;;;;;8.90;8.10;;;26.40;55.30;;;;;;4984947;28;20233;-51
2021/08/14 03:48:47;;;;;;;9.00;8.20;;;26.40;55.10;;;;;;4986755;28;20543;-50
2021/08/14 03:51:13;;;;;;;9.30;7.60;;;26.20;55.70;;;;;;4985582;28;20226;-51
2021/08/14 03:53:39;;;;;;;9.00;8.20;;;26.20;56.00;;;;;;4986727;28;20651;-52
2021/08/14 03:56:04;;;;;;;10.10;8.43;;;26.20;55.70;;;;;;4986712;28;20469;-51
2021/08/14 03:58:34;;;;;;;8.57;7.77;;;26.30;55.30;;;;;;4982334;28;20215;-52
2021/08/14 04:01:00;;;;;;;9.13;8.23;;;26.40;55.30;;;;;;4981981;28;20218;-51
2021/08/14 04:03:26;;;;;;;8.20;7.40;;;26.40;55.30;;;;;;4987859;28;20879;-51
2021/08/14 04:05:52;;;;;;;8.77;7.97;;;26.40;55.10;;;;;;4984370;28;20522;-52
2021/08/14 04:08:18;;;;;;;7.80;7.13;;;26.40;55.20;;;;;;4977504;28;20203;-51
2021/08/14 04:10:44;;;;;;;9.83;8.93;;;26.40;55.30;;;;;;4977996;28;20237;-51
2021/08/14 04:13:09;;;;;;;9.77;8.77;;;26.30;55.30;;;;;;4978671;28;20627;-51
2021/08/14 04:15:35;;;;;;;8.73;8.00;;;26.30;55.30;;;;;;4989941;28;20206;-52
2021/08/14 04:18:00;;;;;;;8.60;7.67;;;26.30;55.20;;;;;;4984395;28;20213;-47
2021/08/14 04:20:26;;;;;;;8.83;7.93;;;26.30;55.30;;;;;;4986169;28;20270;-47
2021/08/14 04:22:51;;;;;;;8.80;8.00;;;26.20;55.40;;;;;;4989243;28;20198;-48
2021/08/14 04:25:17;;;;;;;8.40;7.70;;;26.20;55.40;;;;;;4985314;28;20191;-46
2021/08/14 04:27:42;;;;;;;9.70;8.40;;;26.00;55.60;;;;;;4981964;28;20595;-47
2021/08/14 04:30:09;;;;;;;8.80;7.90;;;25.80;56.40;;;;;;4985333;28;20254;-46
2021/08/14 04:32:35;;;;;;;8.67;7.87;;;25.40;57.80;;;;;;4982686;28;20234;-48
2021/08/14 04:35:03;;;;;;;8.83;8.03;;;25.60;57.60;;;;;;4981090;28;20473;-46
2021/08/14 04:37:28;;;;;;;8.90;8.10;;;25.70;57.20;;;;;;4980562;28;20477;-47
2021/08/14 04:39:54;;;;;;;9.50;8.53;;;25.80;56.70;;;;;;4986866;28;20473;-47
2021/08/14 04:42:19;;;;;;;15.90;7.37;;;25.90;56.50;;;;;;4988068;28;20194;-47
2021/08/14 04:44:45;;;;;;;8.60;7.80;;;26.00;56.30;;;;;;4981558;28;20210;-46
2021/08/14 04:47:11;;;;;;;8.00;7.40;;;26.10;56.20;;;;;;4986200;28;20208;-46
2021/08/14 04:49:36;;;;;;;9.53;8.53;;;26.10;56.20;;;;;;4986449;28;20195;-49
2021/08/14 04:52:02;;;;;;;9.47;8.57;;;26.10;56.10;;;;;;4979478;28;20249;-47
2021/08/14 04:54:27;;;;;;;8.57;7.87;;;26.10;56.30;;;;;;4989829;28;20198;-46
2021/08/14 04:56:53;;;;;;;9.07;8.20;;;25.90;56.90;;;;;;4983266;28;20199;-46
2021/08/14 04:59:18;;;;;;;8.00;7.20;;;26.00;56.70;;;;;;4987942;28;20288;-48
2021/08/14 05:01:44;;;;;;;9.10;8.20;;;26.10;56.50;;;;;;4985907;28;20214;-50
2021/08/14 05:04:09;;;;;;;9.67;8.20;;;26.10;56.30;;;;;;4984531;28;20193;-47
2021/08/14 05:06:38;;;;;;;9.60;8.70;;;26.20;56.20;;;;;;4984598;28;20191;-49
2021/08/14 05:09:04;;;;;;;9.93;8.10;;;26.30;56.00;;;;;;4989989;28;21036;-47
2021/08/14 05:11:29;;;;;;;9.20;8.30;;;26.30;56.10;;;;;;4981115;28;20473;-47
2021/08/14 05:13:55;;;;;;;9.67;8.77;;;26.20;56.30;;;;;;4986918;28;20313;-48
2021/08/14 05:16:24;;;;;;;9.83;8.50;;;26.20;56.10;;;;;;4984507;28;20192;-48
2021/08/14 05:18:51;;;;;;;11.20;9.27;;;26.20;56.30;;;;;;4988342;28;20195;-46
2021/08/14 05:21:16;;;;;;;10.07;8.80;;;26.10;56.20;;;;;;4985273;28;20453;-48
2021/08/14 05:23:42;;;;;;;9.90;8.83;;;26.10;56.50;;;;;;4985597;28;20790;-46
2021/08/14 05:26:07;;;;;;;10.03;8.97;;;26.20;56.40;;;;;;4987999;28;20199;-46
2021/08/14 05:28:33;;;;;;;8.60;7.80;;;26.30;56.30;;;;;;4990936;28;20671;-46
2021/08/14 05:30:59;;;;;;;10.93;8.00;;;26.20;56.50;;;;;;4988377;28;20195;-47
2021/08/14 05:33:24;;;;;;;9.67;8.73;;;26.20;56.60;;;;;;4987927;28;20325;-46
2021/08/14 05:35:50;;;;;;;11.80;7.97;;;26.30;56.60;;;;;;4990160;28;20195;-46
2021/08/14 05:38:15;;;;;;;10.17;8.77;;;26.40;56.40;;;;;;4991157;28;20232;-49
2021/08/14 05:40:41;;;;;;;11.93;8.60;;;26.30;56.50;;;;;;4987206;28;20255;-46
2021/08/14 05:43:07;;;;;;;10.47;8.80;;;26.20;56.90;;;;;;4984300;28;20195;-45
2021/08/14 05:45:33;;;;;;;11.47;9.40;;;25.80;57.80;;;;;;4989421;28;20253;-47
2021/08/14 05:48:02;;;;;;;9.67;8.57;;;25.60;58.40;;;;;;4986926;28;21384;-46
2021/08/14 05:50:28;;;;;;;11.10;10.00;;;25.60;58.60;;;;;;4989371;28;20473;-45
2021/08/14 05:52:53;;;;;;;10.60;9.10;;;25.50;58.70;;;;;;4988621;28;20827;-46
2021/08/14 05:55:19;;;;;;;11.53;9.10;;;25.50;58.90;;;;;;4992015;28;20198;-46
2021/08/14 05:57:44;;;;;;;12.10;9.40;;;25.50;58.80;;;;;;4988751;28;20277;-47
2021/08/14 06:00:11;;;;;;;10.83;9.70;;;25.10;60.10;;;;;;4991862;28;20206;-47
2021/08/14 06:02:36;;;;;;;9.27;8.27;;;25.20;60.30;;;;;;4988409;28;20206;-47
2021/08/14 06:05:02;;;;;;;11.37;9.13;;;25.50;59.60;;;;;;4986854;28;20816;-46
2021/08/14 06:07:27;;;;;;;9.73;8.70;;;25.80;58.90;;;;;;4992469;28;20245;-48
2021/08/14 06:09:53;;;;;;;10.70;9.70;;;26.00;58.60;;;;;;4988014;28;20233;-47
2021/08/14 06:12:18;;;;;;;13.70;10.27;;;25.70;59.40;;;;;;4983417;28;20244;-46
2021/08/14 06:14:44;;;;;;;11.40;9.90;;;25.40;60.80;;;;;;4986797;28;20200;-47
2021/08/14 06:17:10;;;;;;;10.43;9.53;;;25.00;62.00;;;;;;4990915;28;20306;-47
2021/08/14 06:19:36;;;;;;;11.50;9.80;;;24.80;62.60;;;;;;4992599;28;20559;-46
2021/08/14 06:22:03;;;;;;;9.37;8.43;;;24.60;63.70;;;;;;4989693;28;20203;-47
2021/08/14 06:24:28;;;;;;;13.17;10.90;;;24.60;64.30;;;;;;4991108;28;20769;-49
2021/08/14 06:26:54;;;;;;;10.23;9.17;;;24.70;63.90;;;;;;4985258;28;20445;-47
2021/08/14 06:29:20;;;;;;;10.00;9.00;;;24.70;64.00;;;;;;4993023;28;20642;-46
2021/08/14 06:31:45;;;;;;;11.10;10.00;;;25.00;63.40;;;;;;4989429;28;20195;-46
2021/08/14 06:34:11;;;;;;;9.63;8.73;;;25.30;62.20;;;;;;4990706;28;20252;-46
2021/08/14 06:36:37;;;;;;;12.30;10.73;;;25.70;61.20;;;;;;4990279;28;20190;-50
2021/08/14 06:39:03;;;;;;;9.93;9.10;;;25.80;61.00;;;;;;4991341;28;20674;-47
2021/08/14 06:41:28;;;;;;;10.57;9.50;;;26.10;60.60;;;;;;4990059;28;20206;-46
2021/08/14 06:43:54;;;;;;;11.17;9.20;;;26.30;59.60;;;;;;4978932;28;20454;-47
2021/08/14 06:46:19;;;;;;;10.53;9.43;;;26.50;59.20;;;;;;4985662;28;20562;-48
2021/08/14 06:48:45;;;;;;;9.80;8.90;;;26.70;58.70;;;;;;4992737;28;20540;-49
2021/08/14 06:51:14;;;;;;;10.43;9.43;;;26.80;58.50;;;;;;4984568;28;20579;-47
2021/08/14 06:53:40;;;;;;;12.33;9.30;;;27.00;58.30;;;;;;4985879;28;20270;-46
2021/08/14 06:56:05;;;;;;;10.60;9.50;;;27.00;58.20;;;;;;4986729;28;20573;-48
2021/08/14 06:58:31;;;;;;;9.73;8.80;;;26.80;58.40;;;;;;4987838;28;21104;-46
2021/08/14 07:00:56;;;;;;;10.90;9.90;;;27.10;58.30;;;;;;4989971;28;20541;-46
2021/08/14 07:03:22;;;;;;;10.27;9.27;;;27.30;57.50;;;;;;4989743;28;20195;-50
2021/08/14 07:05:48;;;;;;;11.63;9.00;;;27.60;57.20;;;;;;4982722;28;20206;-46
2021/08/14 07:08:13;;;;;;;11.97;10.30;;;27.80;56.40;;;;;;4983332;28;20272;-48
2021/08/14 07:10:39;;;;;;;9.90;8.97;;;27.80;56.40;;;;;;4988479;28;20211;-47
2021/08/14 07:13:05;;;;;;;10.53;8.97;;;27.90;56.10;;;;;;4985810;28;20265;-48
2021/08/14 07:15:31;;;;;;;11.10;9.00;;;27.90;56.30;;;;;;4991298;28;20183;-50
2021/08/14 07:17:59;;;;;;;14.07;8.70;;;28.10;56.30;;;;;;4985492;28;20266;-47
2021/08/14 07:20:25;;;;;;;10.33;9.33;;;28.10;55.20;;;;;;4983827;28;20248;-48
2021/08/14 07:22:51;;;;;;;9.47;8.30;;;28.10;55.60;;;;;;4988482;28;20870;-50
2021/08/14 07:25:16;;;;;;;9.67;8.67;;;28.40;55.30;;;;;;4990497;28;20535;-50
2021/08/14 07:27:42;;;;;;;10.20;9.30;;;28.70;54.50;;;;;;4990769;28;20226;-47
2021/08/14 07:30:09;;;;;;;10.40;8.37;;;29.10;54.60;;;;;;4987887;28;20194;-50
2021/08/14 07:32:35;;;;;;;10.20;8.40;;;29.10;52.80;;;;;;4989832;28;20234;-46
2021/08/14 07:35:02;;;;;;;12.57;9.03;;;29.40;52.60;;;;;;4990864;28;20508;-50
2021/08/14 07:37:28;;;;;;;9.30;8.40;;;29.70;52.50;;;;;;4987700;28;20533;-46
2021/08/14 07:39:54;;;;;;;8.87;8.00;;;29.50;52.80;;;;;;4987788;28;20794;-50
2021/08/14 07:42:19;;;;;;;12.13;9.23;;;29.80;52.30;;;;;;4986334;28;20504;-50
2021/08/14 07:44:45;;;;;;;8.93;8.03;;;30.00;51.80;;;;;;4990489;28;20195;-49
2021/08/14 07:47:10;;;;;;;8.97;8.17;;;30.30;51.70;;;;;;4981043;28;20186;-47
2021/08/14 07:49:36;;;;;;;8.93;7.70;;;30.50;51.10;;;;;;4987010;28;20201;-46
2021/08/14 07:52:02;;;;;;;8.90;8.10;;;30.80;50.00;;;;;;4983293;28;20242;-48
2021/08/14 07:54:28;;;;;;;9.57;8.63;;;30.70;48.40;;;;;;4983900;28;20261;-51
2021/08/14 07:56:56;;;;;;;9.00;8.10;;;30.80;48.30;;;;;;4984106;28;20613;-48
2021/08/14 07:59:22;;;;;;;12.17;8.90;;;31.00;47.70;;;;;;4979438;28;20988;-51
2021/08/14 08:01:47;;;;;;;9.07;8.23;;;31.00;47.70;;;;;;4983027;28;20453;-47
2021/08/14 08:04:13;;;;;;;9.30;8.50;;;31.10;48.40;;;;;;4987907;28;20450;-47
2021/08/14 08:06:38;;;;;;;9.13;8.30;;;31.20;47.90;;;;;;4981879;28;20799;-49
2021/08/14 08:09:04;;;;;;;8.23;7.43;;;31.30;47.30;;;;;;4985945;28;20214;-52
2021/08/14 08:11:30;;;;;;;8.77;7.87;;;31.40;47.10;;;;;;4984581;28;20234;-48
2021/08/14 08:13:55;;;;;;;8.40;7.60;;;31.40;47.00;;;;;;4982875;28;20234;-47
2021/08/14 08:16:21;;;;;;;10.50;7.60;;;31.50;47.10;;;;;;4985067;28;20634;-51
2021/08/14 08:18:47;;;;;;;11.03;9.90;;;31.70;46.00;;;;;;4986120;28;20594;-47
2021/08/14 08:21:12;;;;;;;9.80;8.77;;;31.90;45.40;;;;;;4983285;28;20194;-49
2021/08/14 08:23:38;;;;;;;10.27;8.33;;;31.90;45.90;;;;;;4987726;28;20687;-50
2021/08/14 08:26:04;;;;;;;8.97;8.17;;;32.00;45.20;;;;;;4983069;28;20198;-50
2021/08/14 08:28:29;;;;;;;9.77;8.00;;;32.20;44.90;;;;;;4985682;28;20198;-46
2021/08/14 08:30:55;;;;;;;9.00;8.20;;;32.30;44.90;;;;;;4984010;28;20305;-48
2021/08/14 08:33:20;;;;;;;11.07;8.43;;;32.50;45.10;;;;;;4987637;28;20769;-51
2021/08/14 08:35:46;;;;;;;9.30;8.47;;;32.70;44.60;;;;;;4987390;28;20677;-49
2021/08/14 08:38:12;;;;;;;10.87;8.17;;;32.50;45.20;;;;;;4991644;28;20232;-46
2021/08/14 08:40:41;;;;;;;9.80;8.80;;;32.80;44.80;;;;;;4983614;28;20292;-46
2021/08/14 08:43:08;;;;;;;8.97;8.17;;;33.00;44.10;;;;;;4980002;28;20453;-48
2021/08/14 08:45:34;;;;;;;10.20;8.60;;;33.10;43.90;;;;;;4983971;28;20450;-50
2021/08/14 08:48:03;;;;;;;9.83;8.97;;;33.00;43.30;;;;;;4991587;28;20804;-46
2021/08/14 08:50:29;;;;;;;9.30;7.53;;;32.80;44.10;;;;;;4984378;28;20814;-45
2021/08/14 08:52:55;;;;;;;9.00;8.30;;;32.80;43.80;;;;;;4971535;28;20576;-47
2021/08/14 08:55:22;;;;;;;9.33;8.43;;;33.00;44.00;;;;;;4979612;28;20541;-48
2021/08/14 08:57:48;;;;;;;9.17;8.27;;;33.20;43.20;;;;;;4992378;28;20253;-49
2021/08/14 09:00:16;;;;;;;9.30;7.83;;;33.40;42.40;;;;;;4985593;28;20449;-46
2021/08/14 09:02:43;;;;;;;8.50;7.80;;;33.60;42.00;;;;;;4994737;28;20183;-47
2021/08/14 09:05:18;;;;;;;8.13;7.40;;;33.80;41.50;;;;;;4987225;28;20858;-51
2021/08/14 09:07:45;;;;;;;7.93;7.30;;;33.70;41.50;;;;;;4988481;28;20449;-46
2021/08/14 09:10:17;;;;;;;12.87;8.23;;;33.70;40.90;;;;;;4989675;28;20443;-50
2021/08/14 09:12:43;;;;;;;8.00;7.30;;;33.90;41.20;;;;;;4984123;28;20572;-47
2021/08/14 09:15:16;;;;;;;9.03;8.13;;;33.90;41.10;;;;;;4991485;28;20449;-50
2021/08/14 09:17:43;;;;;;;8.80;7.83;;;33.10;41.90;;;;;;4986397;28;20485;-50
2021/08/14 09:20:10;;;;;;;8.60;7.73;;;33.40;42.50;;;;;;4985677;28;20521;-48
2021/08/14 09:22:36;;;;;;;8.00;7.20;;;33.90;41.60;;;;;;4978539;28;20450;-50
2021/08/14 09:25:17;;;;;;;7.47;6.70;;;34.30;40.70;;;;;;4993367;28;20430;-48
2021/08/14 09:27:50;;;;;;;8.80;7.20;;;34.70;39.40;;;;;;4986945;28;20555;-51
2021/08/14 09:30:16;;;;;;;7.83;7.03;;;34.80;38.30;;;;;;4994215;28;20446;-49
2021/08/14 09:32:42;;;;;;;7.47;6.80;;;34.70;37.20;;;;;;4989281;28;20992;-48
2021/08/14 09:35:08;;;;;;;9.73;7.43;;;34.70;38.00;;;;;;4975113;28;20656;-50
2021/08/14 09:37:38;;;;;;;7.40;6.63;;;34.80;38.50;;;;;;4978040;28;20203;-50
2021/08/14 09:40:05;;;;;;;8.77;7.50;;;35.00;37.40;;;;;;4983441;28;20957;-50
2021/08/14 09:42:47;;;;;;;7.70;7.10;;;35.30;37.40;;;;;;4991625;28;20969;-49
2021/08/14 09:45:15;;;;;;;7.53;6.83;;;35.40;37.60;;;;;;4987084;28;20948;-46
2021/08/14 09:47:42;;;;;;;9.13;6.63;;;35.70;37.00;;;;;;4991228;28;20472;-50
2021/08/14 09:50:09;;;;;;;7.60;6.90;;;35.80;36.10;;;;;;4981055;28;20449;-49
2021/08/14 09:52:35;;;;;;;9.10;7.20;;;35.90;36.90;;;;;;4987470;28;20493;-48
2021/08/14 09:55:01;;;;;;;8.90;7.20;;;36.10;36.80;;;;;;4983931;28;20441;-48
2021/08/14 09:57:26;;;;;;;7.80;7.10;;;36.20;36.80;;;;;;4981678;28;20496;-51
2021/08/14 09:59:53;;;;;;;8.20;6.47;;;36.30;35.80;;;;;;4983683;28;20202;-51
2021/08/14 10:02:27;;;;;;;7.43;6.80;;;36.40;37.00;;;;;;4981839;28;20207;-51
2021/08/14 10:04:55;;;;;;;7.73;6.73;;;36.50;36.90;;;;;;4984331;28;20448;-46
2021/08/14 10:07:21;;;;;;;7.77;7.07;;;36.70;36.00;;;;;;4985174;28;20448;-50
2021/08/14 10:09:47;;;;;;;8.00;6.97;;;36.80;36.60;;;;;;4984551;28;20808;-48
2021/08/14 10:12:17;;;;;;;7.23;6.63;;;37.00;36.00;;;;;;4984149;28;20249;-51
2021/08/14 10:14:45;;;;;;;7.50;6.80;;;37.10;35.30;;;;;;4982400;28;20462;-49
2021/08/14 10:17:11;;;;;;;7.90;7.10;;;37.30;35.70;;;;;;4985398;28;20445;-50
2021/08/14 10:19:38;;;;;;;6.90;6.27;;;37.40;34.90;;;;;;4983385;28;20445;-51
2021/08/14 10:22:06;;;;;;;7.50;6.80;;;37.50;33.60;;;;;;4984302;28;20512;-49
2021/08/14 10:24:43;;;;;;;8.00;7.30;;;37.50;33.70;;;;;;4988976;28;20952;-50
2021/08/14 10:27:16;;;;;;;8.13;7.43;;;37.60;33.70;;;;;;4986946;28;20445;-50
2021/08/14 10:29:49;;;;;;;8.30;7.50;;;37.70;34.20;;;;;;4989790;28;20968;-52
2021/08/14 10:32:29;;;;;;;8.00;7.20;;;37.80;34.60;;;;;;4986909;28;20984;-50
2021/08/14 10:35:19;;;;;;;9.10;6.90;;;38.10;33.90;;;;;;4989994;28;20943;-50
2021/08/14 10:37:47;;;;;;;9.63;7.30;;;38.30;33.00;;;;;;4977803;28;20458;-51
2021/08/14 10:40:14;;;;;;;8.23;7.43;;;38.30;32.70;;;;;;4991858;28;20436;-51
2021/08/14 10:42:57;;;;;;;8.40;7.60;;;38.30;32.70;;;;;;4990427;28;21003;-52
2021/08/14 10:45:26;;;;;;;8.97;8.13;;;38.50;33.70;;;;;;4992843;28;20479;-51
2021/08/14 10:47:52;;;;;;;9.70;7.40;;;38.60;32.70;;;;;;4991337;28;20447;-51
2021/08/14 10:50:30;;;;;;;9.10;8.20;;;38.60;32.50;;;;;;4987840;28;20441;-50
2021/08/14 10:53:41;;;;;;;8.17;7.47;;;38.70;32.00;;;;;;4985403;28;20499;-50
2021/08/14 10:56:07;;;;;;;7.20;6.50;;;38.70;32.60;;;;;;4982692;28;20960;-52
2021/08/14 10:58:40;;;;;;;9.23;7.83;;;38.80;31.40;;;;;;4985209;28;20441;-52
2021/08/14 11:01:06;;;;;;;7.60;6.90;;;39.00;32.40;;;;;;4987987;28;20208;-51
2021/08/14 11:03:34;;;;;;;7.70;7.10;;;39.00;31.60;;;;;;4991546;28;20812;-51
2021/08/14 11:06:27;;;;;;;7.83;7.03;;;39.00;30.90;;;;;;4981648;28;20275;-51
2021/08/14 11:09:17;;;;;;;8.80;7.90;;;39.00;30.80;;;;;;4982446;28;20814;-49
2021/08/14 11:11:56;;;;;;;8.50;7.80;;;39.00;31.40;;;;;;4983429;28;20568;-49
2021/08/14 11:14:36;;;;;;;9.07;7.60;;;39.00;32.10;;;;;;4987299;28;20476;-50
2021/08/14 11:17:02;;;;;;;8.40;7.60;;;38.90;31.80;;;;;;4991159;28;20979;-50
2021/08/14 11:19:51;;;;;;;8.17;7.50;;;39.00;31.30;;;;;;4990425;28;20441;-51
2021/08/14 11:22:24;;;;;;;7.63;7.00;;;39.30;30.70;;;;;;4988953;28;20540;-52
2021/08/14 11:24:50;;;;;;;8.17;7.47;;;39.20;31.20;;;;;;4987365;28;21188;-48
2021/08/14 11:27:23;;;;;;;8.10;7.30;;;39.30;32.10;;;;;;4986599;28;20442;-51
2021/08/14 11:30:01;;;;;;;8.10;7.30;;;39.40;30.30;;;;;;4991240;28;20449;-49
2021/08/14 11:32:28;;;;;;;8.63;7.90;;;39.50;31.30;;;;;;4977882;28;20488;-50
2021/08/14 11:34:55;;;;;;;8.17;7.37;;;39.70;31.40;;;;;;4990536;28;20929;-51
2021/08/14 11:37:21;;;;;;;9.17;8.37;;;39.80;30.70;;;;;;4990212;28;20579;-52
2021/08/14 11:40:02;;;;;;;8.40;7.60;;;39.70;29.30;;;;;;4984339;28;20532;-50
2021/08/14 11:42:32;;;;;;;7.47;6.80;;;39.50;30.60;;;;;;4982856;28;20946;-52
2021/08/14 11:45:00;;;;;;;8.20;7.40;;;39.60;30.70;;;;;;4990426;28;20448;-51
2021/08/14 11:47:36;;;;;;;7.77;7.13;;;39.90;29.90;;;;;;4987975;28;20443;-51
2021/08/14 11:50:03;;;;;;;9.17;8.37;;;40.10;30.40;;;;;;4987655;28;20870;-48
2021/08/14 11:52:29;;;;;;;9.17;8.10;;;40.10;30.50;;;;;;4985611;28;20515;-51
2021/08/14 11:55:07;;;;;;;8.23;7.57;;;40.20;29.90;;;;;;4990054;28;20477;-47
2021/08/14 11:57:35;;;;;;;8.07;7.47;;;40.10;30.70;;;;;;4988884;28;20224;-50
2021/08/14 12:00:06;;;;;;;8.33;7.73;;;40.00;30.60;;;;;;4990076;28;20797;-52
2021/08/14 12:02:31;;;;;;;8.43;7.63;;;40.00;30.90;;;;;;4984005;28;20455;-47
2021/08/14 12:04:57;;;;;;;8.17;7.37;;;40.00;30.20;;;;;;4987772;28;20449;-50
2021/08/14 12:07:23;;;;;;;8.10;7.30;;;39.90;30.70;;;;;;4988516;28;20665;-48
2021/08/14 12:09:50;;;;;;;8.50;7.90;;;39.80;30.90;;;;;;4987918;28;20653;-49
2021/08/14 12:12:21;;;;;;;9.20;8.30;;;39.70;30.70;;;;;;4978427;28;20568;-46
2021/08/14 12:14:47;;;;;;;8.33;7.60;;;39.60;31.30;;;;;;4986069;28;20441;-49
2021/08/14 12:17:13;;;;;;;9.03;8.00;;;39.80;30.60;;;;;;4984522;28;20476;-49
2021/08/14 12:19:54;;;;;;;7.93;7.33;;;39.80;31.40;;;;;;4989914;28;20472;-48
2021/08/14 12:22:27;;;;;;;8.00;7.40;;;39.90;32.60;;;;;;4982962;28;20606;-49
2021/08/14 12:24:52;;;;;;;8.33;7.53;;;39.90;31.00;;;;;;4975172;28;20533;-51
2021/08/14 12:27:36;;;;;;;8.00;7.20;;;40.00;31.50;;;;;;4982187;28;20525;-47
2021/08/14 12:30:17;;;;;;;9.23;7.90;;;40.10;30.90;;;;;;4980981;28;20240;-47
2021/08/14 12:32:44;;;;;;;7.70;7.00;;;40.10;30.10;;;;;;4993252;28;20504;-51
2021/08/14 12:35:14;;;;;;;8.53;7.70;;;40.20;29.40;;;;;;4990629;28;20534;-48
2021/08/14 12:37:40;;;;;;;8.27;7.60;;;40.30;30.30;;;;;;4991594;28;21168;-49
2021/08/14 12:40:07;;;;;;;9.33;8.43;;;40.40;30.20;;;;;;4987831;28;20455;-49
2021/08/14 12:42:37;;;;;;;9.57;7.33;;;40.30;29.10;;;;;;4991833;28;20354;-49
2021/08/14 12:45:20;;;;;;;8.30;7.60;;;40.50;29.20;;;;;;4991209;28;20455;-47
2021/08/14 12:47:48;;;;;;;9.43;8.63;;;40.70;29.00;;;;;;4986598;28;20485;-52